createdAt,value
2018-03-19T00:00:00.846Z,20.67
2018-03-19T00:02:30.028Z,20.63
2018-03-19T00:04:56.664Z,20.63
2018-03-19T00:07:23.267Z,20.62
2018-03-19T00:09:49.906Z,20.60
2018-03-19T00:12:16.552Z,20.57
2018-03-19T00:14:48.136Z,20.58
2018-03-19T00:17:14.813Z,20.57
2018-03-19T00:19:41.440Z,20.60
2018-03-19T00:22:08.048Z,20.57
2018-03-19T00:24:34.787Z,20.54
2018-03-19T00:27:01.480Z,20.56
2018-03-19T00:29:28.130Z,20.54
2018-03-19T00:31:54.735Z,20.60
2018-03-19T00:34:23.420Z,20.57
2018-03-19T00:36:51.129Z,20.56
2018-03-19T00:39:17.753Z,20.54
2018-03-19T00:41:44.387Z,20.54
2018-03-19T00:44:11.000Z,20.57
2018-03-19T00:46:37.666Z,20.55
2018-03-19T00:49:04.333Z,20.58
2018-03-19T00:51:30.936Z,20.55
2018-03-19T00:53:57.663Z,20.52
2018-03-19T00:56:24.267Z,20.54
2018-03-19T00:58:50.942Z,20.53
2018-03-19T01:01:17.594Z,20.51
2018-03-19T01:03:44.322Z,20.58
2018-03-19T01:06:11.003Z,20.51
2018-03-19T01:08:37.600Z,20.51
2018-03-19T01:11:04.243Z,20.50
2018-03-19T01:13:30.901Z,20.54
2018-03-19T01:15:57.543Z,20.48
2018-03-19T01:18:24.213Z,20.51
2018-03-19T01:20:50.859Z,20.49
2018-03-19T01:23:17.548Z,20.48
2018-03-19T01:25:44.155Z,20.50
2018-03-19T01:28:10.801Z,20.49
2018-03-19T01:30:37.469Z,20.48
2018-03-19T01:33:04.107Z,20.46
2018-03-19T01:35:30.778Z,20.49
2018-03-19T01:37:57.473Z,20.47
2018-03-19T01:40:24.084Z,20.46
2018-03-19T01:42:50.756Z,20.48
2018-03-19T01:45:17.493Z,20.50
2018-03-19T01:47:44.200Z,20.49
2018-03-19T01:50:13.400Z,20.46
2018-03-19T01:52:40.044Z,20.46
2018-03-19T01:55:06.780Z,20.44
2018-03-19T01:57:33.416Z,20.48
2018-03-19T02:00:00.064Z,20.44
2018-03-19T02:02:26.827Z,20.46
2018-03-19T02:04:53.534Z,20.43
2018-03-19T02:07:20.222Z,20.46
2018-03-19T02:09:46.858Z,20.43
2018-03-19T02:12:13.608Z,20.40
2018-03-19T02:14:40.227Z,20.40
2018-03-19T02:17:09.756Z,20.44
2018-03-19T02:19:36.446Z,20.42
2018-03-19T02:22:03.055Z,20.40
2018-03-19T02:24:31.815Z,20.42
2018-03-19T02:26:56.393Z,20.42
2018-03-19T02:29:23.070Z,20.41
2018-03-19T02:31:49.702Z,20.40
2018-03-19T02:34:16.619Z,20.36
2018-03-19T02:36:43.588Z,20.40
2018-03-19T02:39:10.825Z,20.35
2018-03-19T02:41:37.461Z,20.38
2018-03-19T02:44:04.099Z,20.40
2018-03-19T02:46:30.713Z,20.37
2018-03-19T02:48:57.427Z,20.36
2018-03-19T02:51:26.925Z,20.32
2018-03-19T02:53:53.699Z,20.30
2018-03-19T02:56:20.309Z,20.33
2018-03-19T02:58:47.033Z,20.33
2018-03-19T03:01:13.665Z,20.34
2018-03-19T03:03:40.263Z,20.31
2018-03-19T03:06:06.940Z,20.30
2018-03-19T03:08:33.578Z,20.30
2018-03-19T03:11:00.233Z,20.31
2018-03-19T03:13:26.841Z,20.29
2018-03-19T03:15:53.585Z,20.26
2018-03-19T03:18:20.184Z,20.28
2018-03-19T03:20:50.345Z,20.24
2018-03-19T03:23:17.012Z,20.28
2018-03-19T03:25:43.708Z,20.24
2018-03-19T03:28:10.419Z,20.27
2018-03-19T03:30:37.054Z,20.26
2018-03-19T03:33:06.016Z,20.28
2018-03-19T03:35:32.707Z,20.28
2018-03-19T03:37:59.345Z,20.25
2018-03-19T03:40:27.288Z,20.28
2018-03-19T03:42:53.418Z,20.21
2018-03-19T03:45:20.185Z,20.25
2018-03-19T03:47:49.521Z,20.25
2018-03-19T03:50:16.161Z,20.27
2018-03-19T03:52:42.791Z,20.25
2018-03-19T03:55:09.568Z,20.23
2018-03-19T03:57:39.033Z,20.23
2018-03-19T04:00:05.716Z,20.22
2018-03-19T04:02:32.368Z,20.25
2018-03-19T04:04:59.006Z,20.22
2018-03-19T04:07:27.001Z,20.21
2018-03-19T04:09:52.344Z,20.21
2018-03-19T04:12:18.981Z,20.18
2018-03-19T04:14:47.598Z,20.20
2018-03-19T04:17:12.284Z,20.21
2018-03-19T04:19:40.513Z,20.20
2018-03-19T04:22:06.540Z,20.22
2018-03-19T04:24:33.146Z,20.24
2018-03-19T04:26:59.816Z,20.21
2018-03-19T04:29:29.632Z,20.19
2018-03-19T04:31:56.298Z,20.23
2018-03-19T04:34:25.738Z,20.18
2018-03-19T04:36:55.433Z,20.21
2018-03-19T04:39:22.122Z,20.21
2018-03-19T04:41:51.590Z,20.20
2018-03-19T04:44:21.792Z,20.20
2018-03-19T04:46:48.466Z,20.20
2018-03-19T04:49:15.064Z,20.21
2018-03-19T04:51:41.751Z,20.18
2018-03-19T04:54:08.428Z,20.22
2018-03-19T04:56:35.070Z,20.20
2018-03-19T04:59:01.759Z,20.20
2018-03-19T05:01:31.714Z,20.21
2018-03-19T05:03:58.385Z,20.25
2018-03-19T05:06:25.000Z,20.19
2018-03-19T05:08:51.729Z,20.06
2018-03-19T05:11:18.337Z,19.78
2018-03-19T05:13:45.055Z,19.78
2018-03-19T05:16:11.723Z,19.94
2018-03-19T05:18:38.492Z,20.09
2018-03-19T05:21:05.140Z,20.34
2018-03-19T05:23:33.498Z,20.27
2018-03-19T05:25:58.411Z,20.23
2018-03-19T05:28:27.056Z,20.31
2018-03-19T05:30:51.754Z,20.46
2018-03-19T05:33:18.405Z,20.55
2018-03-19T05:35:45.044Z,20.49
2018-03-19T05:38:12.971Z,20.43
2018-03-19T05:40:41.032Z,20.40
2018-03-19T05:43:10.534Z,20.40
2018-03-19T05:45:37.250Z,20.41
2018-03-19T05:48:03.975Z,20.42
2018-03-19T05:50:30.671Z,20.45
2018-03-19T05:52:57.343Z,20.46
2018-03-19T05:55:24.001Z,20.48
2018-03-19T05:57:50.669Z,20.47
2018-03-19T06:00:17.360Z,20.50
2018-03-19T06:02:44.120Z,20.50
2018-03-19T06:05:10.798Z,20.51
2018-03-19T06:07:37.513Z,20.54
2018-03-19T06:10:04.141Z,20.54
2018-03-19T06:12:30.936Z,20.57
2018-03-19T06:15:02.705Z,20.55
2018-03-19T06:17:27.201Z,20.58
2018-03-19T06:19:53.943Z,20.60
2018-03-19T06:22:20.580Z,20.60
2018-03-19T06:24:48.544Z,20.64
2018-03-19T06:27:13.914Z,20.63
2018-03-19T06:29:40.643Z,20.62
2018-03-19T06:32:07.305Z,20.66
2018-03-19T06:34:34.008Z,20.70
2018-03-19T06:37:00.647Z,20.66
2018-03-19T06:39:27.412Z,20.79
2018-03-19T06:41:54.070Z,20.83
2018-03-19T06:44:20.750Z,20.78
2018-03-19T06:46:47.472Z,20.74
2018-03-19T06:49:14.081Z,20.95
2018-03-19T06:51:40.714Z,20.93
2018-03-19T06:54:07.422Z,20.87
2018-03-19T06:56:34.023Z,20.82
2018-03-19T06:59:00.749Z,20.78
2018-03-19T07:01:27.358Z,20.84
2018-03-19T07:03:54.081Z,20.83
2018-03-19T07:06:21.996Z,20.85
2018-03-19T07:08:47.362Z,20.87
2018-03-19T07:11:14.064Z,20.96
2018-03-19T07:13:40.794Z,20.99
2018-03-19T07:16:07.524Z,21.01
2018-03-19T07:18:34.173Z,20.97
2018-03-19T07:21:00.791Z,21.00
2018-03-19T07:23:27.424Z,21.04
2018-03-19T07:25:54.132Z,21.09
2018-03-19T07:28:20.796Z,21.17
2018-03-19T07:30:47.467Z,21.27
2018-03-19T07:33:14.137Z,21.26
2018-03-19T07:35:40.839Z,21.40
2018-03-19T07:38:07.526Z,21.40
2018-03-19T07:40:34.164Z,21.36
2018-03-19T07:43:00.892Z,21.45
2018-03-19T07:45:30.677Z,21.47
2018-03-19T07:47:57.337Z,21.65
2018-03-19T07:50:23.969Z,21.63
2018-03-19T07:52:50.657Z,21.79
2018-03-19T07:55:17.289Z,21.92
2018-03-19T07:57:44.041Z,21.85
2018-03-19T08:00:10.666Z,21.89
2018-03-19T08:02:37.329Z,21.89
2018-03-19T08:05:03.946Z,21.92
2018-03-19T08:07:30.580Z,21.88
2018-03-19T08:09:57.541Z,21.90
2018-03-19T08:12:24.200Z,21.85
2018-03-19T08:14:50.836Z,21.78
2018-03-19T08:17:17.503Z,21.79
2018-03-19T08:19:44.419Z,22.00
2018-03-19T08:22:11.190Z,21.92
2018-03-19T08:24:37.813Z,21.88
2018-03-19T08:27:06.468Z,21.80
2018-03-19T08:29:33.101Z,21.86
2018-03-19T08:31:59.712Z,21.92
2018-03-19T08:34:26.380Z,21.88
2018-03-19T08:36:54.558Z,22.00
2018-03-19T08:39:19.671Z,22.03
2018-03-19T08:41:46.314Z,21.92
2018-03-19T08:44:13.040Z,21.82
2018-03-19T08:46:39.716Z,21.83
2018-03-19T08:49:07.371Z,21.81
2018-03-19T08:51:34.145Z,21.82
2018-03-19T08:54:06.619Z,22.05
2018-03-19T08:56:33.384Z,22.18
2018-03-19T08:59:00.018Z,22.65
2018-03-19T09:01:26.711Z,22.20
2018-03-19T09:03:53.394Z,22.01
2018-03-19T09:06:20.139Z,21.99
2018-03-19T09:08:46.850Z,21.93
2018-03-19T09:11:13.469Z,21.95
2018-03-19T09:13:40.389Z,22.08
2018-03-19T09:16:07.124Z,22.08
2018-03-19T09:18:33.996Z,22.04
2018-03-19T09:21:01.884Z,22.06
2018-03-19T09:23:28.702Z,21.91
2018-03-19T09:25:55.339Z,21.91
2018-03-19T09:28:22.000Z,22.34
2018-03-19T09:30:48.684Z,22.16
2018-03-19T09:33:16.873Z,22.12
2018-03-19T09:35:41.978Z,22.10
2018-03-19T09:38:08.626Z,22.27
2018-03-19T09:40:35.344Z,22.02
2018-03-19T09:43:03.242Z,21.99
2018-03-19T09:45:28.684Z,22.13
2018-03-19T09:47:55.388Z,21.99
2018-03-19T09:50:22.200Z,22.08
2018-03-19T09:52:48.822Z,21.95
2018-03-19T09:55:17.667Z,21.75
2018-03-19T09:57:44.378Z,21.70
2018-03-19T10:00:11.037Z,21.69
2018-03-19T10:02:38.000Z,21.72
2018-03-19T10:05:04.723Z,21.92
2018-03-19T10:07:31.378Z,21.90
2018-03-19T10:09:58.067Z,21.73
2018-03-19T10:12:24.846Z,21.65
2018-03-19T10:14:51.473Z,21.62
2018-03-19T10:17:20.303Z,21.66
2018-03-19T10:19:46.172Z,21.86
2018-03-19T10:22:11.489Z,21.76
2018-03-19T10:24:40.866Z,21.69
2018-03-19T10:27:07.502Z,21.68
2018-03-19T10:29:34.159Z,21.61
2018-03-19T10:32:00.788Z,21.62
2018-03-19T10:34:27.488Z,21.59
2018-03-19T10:36:54.230Z,21.59
2018-03-19T10:39:20.822Z,21.69
2018-03-19T10:41:47.585Z,21.67
2018-03-19T10:44:14.274Z,21.80
2018-03-19T10:46:40.905Z,21.96
2018-03-19T10:49:07.555Z,21.90
2018-03-19T10:51:34.303Z,21.81
2018-03-19T10:54:03.817Z,21.71
2018-03-19T10:56:30.468Z,21.59
2018-03-19T10:58:59.120Z,21.67
2018-03-19T11:01:25.773Z,21.60
2018-03-19T11:03:52.455Z,21.57
2018-03-19T11:06:22.240Z,21.58
2018-03-19T11:08:48.803Z,21.53
2018-03-19T11:11:15.528Z,21.50
2018-03-19T11:13:45.610Z,21.78
2018-03-19T11:16:12.333Z,21.86
2018-03-19T11:18:39.041Z,21.71
2018-03-19T11:21:08.511Z,21.56
2018-03-19T11:23:35.190Z,21.52
2018-03-19T11:26:01.990Z,21.62
2018-03-19T11:28:28.620Z,21.58
2018-03-19T11:30:55.303Z,21.51
2018-03-19T11:33:21.956Z,21.56
2018-03-19T11:35:48.652Z,21.56
2018-03-19T11:38:16.433Z,21.50
2018-03-19T11:40:43.070Z,21.54
2018-03-19T11:43:09.770Z,21.57
2018-03-19T11:45:36.490Z,21.54
2018-03-19T11:48:03.131Z,21.50
2018-03-19T11:50:29.812Z,21.52
2018-03-19T11:52:59.809Z,21.58
2018-03-19T11:55:28.435Z,21.51
2018-03-19T11:57:56.171Z,21.55
2018-03-19T12:00:26.064Z,21.61
2018-03-19T12:02:50.610Z,21.59
2018-03-19T12:05:17.227Z,21.77
2018-03-19T12:07:43.857Z,21.83
2018-03-19T12:10:10.580Z,21.90
2018-03-19T12:12:37.217Z,21.87
2018-03-19T12:15:05.038Z,21.73
2018-03-19T12:17:31.665Z,21.73
2018-03-19T12:19:58.338Z,21.77
2018-03-19T12:22:25.102Z,21.96
2018-03-19T12:24:51.809Z,21.98
2018-03-19T12:27:18.448Z,21.93
2018-03-19T12:29:45.085Z,22.05
2018-03-19T12:32:14.900Z,22.03
2018-03-19T12:34:41.509Z,22.21
2018-03-19T12:37:08.148Z,22.15
2018-03-19T12:39:34.795Z,22.13
2018-03-19T12:42:01.433Z,22.52
2018-03-19T12:44:28.117Z,22.65
2018-03-19T12:46:55.885Z,22.55
2018-03-19T12:49:22.590Z,22.59
2018-03-19T12:51:49.231Z,22.74
2018-03-19T12:54:15.875Z,22.64
2018-03-19T12:56:42.603Z,22.94
2018-03-19T12:59:09.333Z,22.67
2018-03-19T13:01:35.969Z,22.55
2018-03-19T13:04:02.730Z,22.49
2018-03-19T13:06:29.468Z,22.55
2018-03-19T13:08:56.171Z,22.65
2018-03-19T13:11:22.761Z,22.69
2018-03-19T13:13:49.418Z,22.61
2018-03-19T13:16:16.079Z,22.75
2018-03-19T13:18:44.727Z,22.89
2018-03-19T13:21:09.420Z,22.82
2018-03-19T13:23:36.198Z,22.65
2018-03-19T13:26:02.813Z,22.64
2018-03-19T13:28:32.735Z,22.67
2018-03-19T13:30:59.339Z,22.72
2018-03-19T13:33:26.013Z,22.97
2018-03-19T13:35:52.661Z,22.79
2018-03-19T13:38:19.905Z,22.89
2018-03-19T13:40:49.474Z,22.78
2018-03-19T13:43:16.149Z,22.83
2018-03-19T13:45:42.849Z,22.83
2018-03-19T13:48:12.575Z,22.82
2018-03-19T13:50:39.256Z,22.85
2018-03-19T13:53:05.917Z,23.00
2018-03-19T13:55:32.719Z,23.09
2018-03-19T13:57:59.315Z,22.95
2018-03-19T14:00:26.108Z,22.88
2018-03-19T14:02:52.812Z,22.90
2018-03-19T14:05:19.484Z,22.94
2018-03-19T14:07:46.220Z,23.02
2018-03-19T14:10:14.184Z,23.06
2018-03-19T14:12:39.615Z,22.97
2018-03-19T14:15:06.375Z,23.02
2018-03-19T14:17:33.052Z,22.97
2018-03-19T14:19:59.784Z,22.99
2018-03-19T14:22:26.475Z,22.94
2018-03-19T14:24:53.156Z,22.97
2018-03-19T14:27:19.810Z,23.14
2018-03-19T14:29:46.540Z,23.30
2018-03-19T14:32:13.159Z,23.32
2018-03-19T14:34:40.942Z,23.25
2018-03-19T14:37:09.928Z,23.04
2018-03-19T14:39:39.328Z,23.06
2018-03-19T14:42:08.058Z,23.03
2018-03-19T14:44:35.481Z,22.92
2018-03-19T14:47:02.211Z,22.99
2018-03-19T14:49:28.939Z,22.92
2018-03-19T14:51:55.624Z,22.88
2018-03-19T14:54:22.307Z,23.00
2018-03-19T14:56:48.997Z,22.96
2018-03-19T14:59:15.647Z,22.77
2018-03-19T15:01:42.289Z,22.77
2018-03-19T15:04:08.926Z,22.65
2018-03-19T15:06:36.455Z,22.47
2018-03-19T15:09:03.096Z,22.44
2018-03-19T15:11:29.734Z,22.50
2018-03-19T15:13:56.679Z,22.83
2018-03-19T15:16:23.407Z,22.67
2018-03-19T15:18:50.026Z,22.65
2018-03-19T15:21:16.691Z,22.70
2018-03-19T15:23:43.465Z,22.68
2018-03-19T15:26:10.067Z,22.69
2018-03-19T15:28:36.742Z,22.83
2018-03-19T15:31:03.415Z,22.66
2018-03-19T15:33:30.090Z,22.61
2018-03-19T15:35:58.014Z,22.63
2018-03-19T15:38:24.662Z,22.65
2018-03-19T15:40:51.424Z,22.87
2018-03-19T15:43:18.027Z,22.86
2018-03-19T15:45:44.680Z,22.77
2018-03-19T15:48:11.402Z,22.83
2018-03-19T15:50:38.081Z,22.95
2018-03-19T15:53:04.714Z,22.98
2018-03-19T15:55:31.315Z,22.96
2018-03-19T15:57:58.002Z,22.89
2018-03-19T16:00:24.606Z,22.98
2018-03-19T16:02:51.333Z,22.96
2018-03-19T16:05:18.050Z,22.97
2018-03-19T16:07:44.648Z,23.17
2018-03-19T16:10:11.345Z,23.18
2018-03-19T16:12:38.025Z,23.11
2018-03-19T16:15:04.678Z,23.08
2018-03-19T16:17:31.341Z,23.05
2018-03-19T16:19:58.070Z,23.05
2018-03-19T16:22:24.671Z,23.07
2018-03-19T16:24:51.346Z,23.06
2018-03-19T16:27:17.968Z,23.10
2018-03-19T16:29:44.639Z,23.08
2018-03-19T16:32:11.300Z,23.09
2018-03-19T16:34:37.942Z,23.20
2018-03-19T16:37:04.576Z,23.20
2018-03-19T16:39:31.264Z,23.28
2018-03-19T16:41:57.861Z,23.13
2018-03-19T16:44:24.503Z,23.13
2018-03-19T16:46:51.275Z,23.09
2018-03-19T16:49:17.914Z,23.03
2018-03-19T16:51:44.512Z,23.00
2018-03-19T16:54:11.379Z,23.02
2018-03-19T16:56:39.313Z,23.01
2018-03-19T16:59:04.753Z,23.03
2018-03-19T17:01:31.407Z,23.01
2018-03-19T17:03:58.045Z,23.00
2018-03-19T17:06:24.694Z,22.98
2018-03-19T17:08:51.375Z,22.99
2018-03-19T17:11:18.039Z,23.01
2018-03-19T17:13:44.648Z,22.98
2018-03-19T17:16:11.318Z,22.99
2018-03-19T17:18:37.975Z,23.03
2018-03-19T17:21:04.633Z,23.05
2018-03-19T17:23:34.178Z,23.03
2018-03-19T17:26:00.872Z,23.02
2018-03-19T17:28:27.541Z,23.00
2018-03-19T17:30:54.850Z,23.02
2018-03-19T17:33:21.459Z,23.14
2018-03-19T17:35:49.410Z,23.04
2018-03-19T17:38:14.787Z,23.07
2018-03-19T17:40:41.428Z,23.03
2018-03-19T17:43:08.152Z,23.05
2018-03-19T17:45:34.791Z,23.03
2018-03-19T17:48:01.431Z,23.03
2018-03-19T17:50:31.081Z,23.07
2018-03-19T17:52:57.765Z,23.14
2018-03-19T17:55:27.312Z,23.05
2018-03-19T17:57:53.988Z,23.01
2018-03-19T18:00:20.702Z,23.01
2018-03-19T18:02:47.830Z,23.01
2018-03-19T18:05:14.564Z,22.99
2018-03-19T18:07:42.616Z,22.98
2018-03-19T18:10:07.831Z,22.97
2018-03-19T18:12:34.527Z,22.97
2018-03-19T18:15:01.181Z,22.96
2018-03-19T18:17:27.828Z,22.95
2018-03-19T18:19:54.584Z,22.95
2018-03-19T18:22:21.261Z,22.95
2018-03-19T18:24:47.916Z,22.93
2018-03-19T18:27:14.585Z,22.94
2018-03-19T18:29:41.196Z,22.93
2018-03-19T18:32:07.864Z,22.92
2018-03-19T18:34:34.478Z,22.92
2018-03-19T18:37:01.116Z,22.91
2018-03-19T18:39:27.790Z,22.91
2018-03-19T18:41:54.462Z,22.97
2018-03-19T18:44:21.098Z,22.98
2018-03-19T18:46:50.744Z,22.98
2018-03-19T18:49:17.415Z,22.91
2018-03-19T18:51:44.131Z,22.88
2018-03-19T18:54:10.823Z,22.90
2018-03-19T18:56:37.496Z,22.89
2018-03-19T18:59:04.143Z,22.88
2018-03-19T19:01:30.889Z,22.89
2018-03-19T19:03:57.553Z,22.89
2018-03-19T19:06:24.144Z,22.91
2018-03-19T19:08:50.783Z,22.91
2018-03-19T19:11:17.545Z,22.90
2018-03-19T19:13:44.203Z,22.90
2018-03-19T19:16:10.865Z,22.89
2018-03-19T19:18:37.618Z,22.90
2018-03-19T19:21:04.338Z,22.89
2018-03-19T19:23:31.001Z,22.89
2018-03-19T19:25:57.739Z,22.91
2018-03-19T19:28:24.375Z,22.92
2018-03-19T19:30:53.908Z,22.93
2018-03-19T19:33:20.544Z,22.90
2018-03-19T19:35:50.330Z,22.90
2018-03-19T19:38:20.186Z,22.90
2018-03-19T19:40:45.767Z,22.89
2018-03-19T19:43:15.391Z,22.89
2018-03-19T19:45:42.025Z,22.90
2018-03-19T19:48:08.705Z,22.88
2018-03-19T19:50:35.314Z,22.91
2018-03-19T19:53:01.976Z,22.90
2018-03-19T19:55:28.633Z,22.89
2018-03-19T19:57:55.255Z,22.92
2018-03-19T20:00:21.865Z,22.89
2018-03-19T20:02:48.589Z,22.88
2018-03-19T20:05:15.320Z,22.89
2018-03-19T20:07:42.008Z,22.91
2018-03-19T20:10:08.612Z,22.91
2018-03-19T20:12:36.296Z,22.90
2018-03-19T20:15:02.010Z,22.89
2018-03-19T20:17:30.186Z,22.90
2018-03-19T20:19:55.198Z,22.88
2018-03-19T20:22:21.863Z,22.87
2018-03-19T20:24:48.455Z,22.86
2018-03-19T20:27:15.185Z,22.89
2018-03-19T20:29:41.788Z,22.87
2018-03-19T20:32:08.550Z,22.87
2018-03-19T20:34:35.216Z,22.88
2018-03-19T20:37:01.855Z,22.86
2018-03-19T20:39:28.532Z,22.88
2018-03-19T20:41:55.172Z,22.87
2018-03-19T20:44:21.921Z,22.85
2018-03-19T20:46:48.526Z,22.86
2018-03-19T20:49:15.166Z,22.86
2018-03-19T20:51:41.806Z,22.83
2018-03-19T20:54:08.483Z,22.86
2018-03-19T20:56:35.160Z,22.85
2018-03-19T20:59:01.809Z,22.85
2018-03-19T21:01:28.505Z,22.87
2018-03-19T21:03:55.101Z,22.84
2018-03-19T21:06:21.785Z,22.84
2018-03-19T21:08:49.020Z,22.84
2018-03-19T21:11:15.682Z,22.83
2018-03-19T21:13:42.295Z,22.85
2018-03-19T21:16:09.030Z,22.87
2018-03-19T21:18:35.654Z,22.84
2018-03-19T21:21:02.296Z,22.84
2018-03-19T21:23:29.251Z,22.87
2018-03-19T21:25:55.892Z,22.85
2018-03-19T21:28:22.686Z,22.85
2018-03-19T21:30:49.359Z,22.85
2018-03-19T21:33:16.066Z,22.86
2018-03-19T21:35:42.778Z,22.87
2018-03-19T21:38:09.445Z,22.86
2018-03-19T21:40:36.165Z,22.87
2018-03-19T21:43:02.758Z,22.85
2018-03-19T21:45:32.508Z,22.86
2018-03-19T21:47:59.193Z,22.87
2018-03-19T21:50:25.894Z,22.88
2018-03-19T21:52:52.529Z,22.88
2018-03-19T21:55:19.263Z,22.89
2018-03-19T21:57:45.925Z,22.88
2018-03-19T22:00:12.550Z,22.91
2018-03-19T22:02:39.160Z,22.90
2018-03-19T22:05:05.890Z,22.90
2018-03-19T22:07:32.621Z,22.91
2018-03-19T22:10:00.727Z,22.90
2018-03-19T22:12:26.057Z,22.94
2018-03-19T22:14:52.612Z,22.94
2018-03-19T22:17:19.259Z,22.93
2018-03-19T22:19:45.929Z,22.95
2018-03-19T22:22:13.944Z,22.95
2018-03-19T22:24:43.164Z,22.94
2018-03-19T22:27:08.847Z,22.96
2018-03-19T22:29:35.521Z,22.96
2018-03-19T22:32:03.538Z,22.96
2018-03-19T22:34:28.933Z,22.95
2018-03-19T22:36:55.537Z,22.97
2018-03-19T22:39:22.299Z,22.97
2018-03-19T22:41:48.851Z,22.98
2018-03-19T22:44:16.572Z,22.99
2018-03-19T22:46:42.249Z,23.01
2018-03-19T22:49:10.082Z,23.02
2018-03-19T22:51:35.578Z,23.00
2018-03-19T22:54:02.183Z,23.01
2018-03-19T22:56:28.856Z,23.00
2018-03-19T22:58:55.561Z,22.99
2018-03-19T23:01:22.193Z,22.97
2018-03-19T23:03:48.822Z,22.95
2018-03-19T23:06:15.431Z,22.70
2018-03-19T23:08:42.471Z,22.57
2018-03-19T23:11:09.134Z,22.56
2018-03-19T23:13:38.557Z,22.54
2018-03-19T23:16:05.195Z,22.63
2018-03-19T23:18:31.823Z,22.67
2018-03-19T23:20:58.523Z,22.73
2018-03-19T23:23:25.200Z,22.76
2018-03-19T23:25:51.845Z,22.79
2018-03-19T23:28:18.577Z,22.84
2018-03-19T23:30:45.278Z,22.86
2018-03-19T23:33:11.954Z,22.88
2018-03-19T23:35:38.566Z,22.88
2018-03-19T23:38:05.281Z,22.90
2018-03-19T23:40:31.940Z,22.93
2018-03-19T23:42:58.577Z,22.94
2018-03-19T23:45:25.279Z,22.92
2018-03-19T23:47:51.992Z,22.94
2018-03-19T23:50:18.672Z,22.97
2018-03-19T23:52:45.301Z,22.96
2018-03-19T23:55:12.005Z,22.96
2018-03-19T23:57:38.605Z,22.98
